• Join FlightAware (Why Join?)
  • Login
  • US Flag 
12:15AM EST


 

Airport Tracker/Info


-or-


 

Live Flight TrackerFlight Track Log ✈ USC105 ✈ 07-May-2013 ✈ KYIP - KDPA

Flight Track Log - Related Links

Times and Time Zones

All times are in EDT time to prevent confusion due to time zone crossing. See the USC105 flight status page for this flight to view local times or setup timezone preferences in your user account.

Time Position Orientation Groundspeed Altitude Reporting Facility
EDT Latitude Longitude Course Direction KTS MPH feet Rate Location/Type
12:20AM 42.2233 -83.5667 267° West 126 145 1,600  Level Cleveland Center
12:21AM 42.2200 -83.6197 265° West 144 166 2,500 900 Climbing Cleveland Center
12:22AM 42.2186 -83.6703 268° West 142 163 3,500 900 Climbing Cleveland Center
12:23AM 42.2172 -83.7261 268° West 145 167 4,400 900 Climbing Cleveland Center
12:26AM 42.2106 -83.8586 266° West 141 162 6,700 900 Climbing Chicago Center
12:27AM 42.2106 -83.9147 270° West 144 166 7,600 600 Climbing Chicago Center
12:28AM 42.2094 -83.9761 269° West 158 182 8,000 180 Climbing Chicago Center
12:29AM 42.2075 -84.0497 268° West 189 217 8,000  Level Chicago Center
12:30AM 42.2028 -84.1386 266° West 197 227 8,000  Level Chicago Center
12:31AM 42.1994 -84.2119 267° West 198 228 8,000  Level Chicago Center
12:32AM 42.1964 -84.2856 267° West 198 228 8,000  Level Chicago Center
12:33AM 42.1917 -84.3594 265° West 198 228 8,000  Level Chicago Center
12:34AM 42.1875 -84.4328 266° West 197 227 8,000  Level Chicago Center
12:35AM 42.1828 -84.5053 265° West 196 226 8,000  Level Chicago Center
12:36AM 42.1792 -84.5750 266° West 197 227 8,000  Level Chicago Center
12:37AM 42.1750 -84.6486 266° West 197 227 8,000  Level Chicago Center
12:38AM 42.1708 -84.7217 266° West 197 227 8,000  Level Chicago Center
12:39AM 42.1672 -84.7947 266° West 197 227 8,000  Level Chicago Center
12:40AM 42.1625 -84.8675 265° West 197 227 8,000  Level Chicago Center
12:41AM 42.1581 -84.9406 265° West 197 227 8,000  Level Chicago Center
12:42AM 42.1533 -85.0150 265° West 199 229 8,000  Level Chicago Center
12:43AM 42.1492 -85.0881 266° West 198 228 8,000  Level Chicago Center
12:44AM 42.1444 -85.1614 265° West 198 228 8,000  Level Chicago Center
12:45AM 42.1400 -85.2342 265° West 197 227 8,000  Level Chicago Center
12:46AM 42.1350 -85.3100 265° West 201 231 8,000  Level Chicago Center
12:47AM 42.1303 -85.3831 265° West 200 230 8,000  Level Chicago Center
12:48AM 42.1242 -85.4742 265° West 203 234 8,000  Level Chicago Center
12:49AM 42.1194 -85.5494 265° West 203 234 8,000  Level Chicago Center
12:50AM 42.1144 -85.6250 265° West 204 235 8,000  Level Chicago Center
12:51AM 42.1094 -85.7014 265° West 205 236 8,000  Level Chicago Center
12:52AM 42.1039 -85.7781 264° West 206 237 8,000  Level Chicago Center
12:53AM 42.0997 -85.8539 266° West 206 237 8,000  Level Chicago Center
12:54AM 42.0933 -85.9297 264° West 206 237 8,000  Level Chicago Center
12:55AM 42.0883 -86.0058 265° West 208 239 8,000  Level Chicago Center
12:56AM 42.0828 -86.0811 264° West 203 234 8,000  Level Chicago Center
12:57AM 42.0772 -86.1572 264° West 204 235 8,000  Level Chicago Center
12:58AM 42.0725 -86.2311 265° West 200 230 8,000  Level Chicago Center
12:59AM 42.0669 -86.3050 264° West 200 230 8,000  Level Chicago Center
01:00AM 42.0611 -86.3800 264° West 202 232 8,000  Level Chicago Center
01:01AM 42.0553 -86.4542 264° West 200 230 8,000  Level Chicago Center
01:02AM 42.0497 -86.5286 264° West 200 230 8,000  Level Chicago Center
01:03AM 42.0450 -86.6025 265° West 200 230 8,000  Level Chicago Center
01:04AM 42.0392 -86.6764 264° West 199 229 8,000  Level Chicago Center
01:05AM 42.0336 -86.7483 264° West 198 228 8,000  Level Chicago Center
01:06AM 42.0292 -86.8214 265° West 197 227 8,000  Level Chicago Center
01:07AM 42.0233 -86.8931 264° West 195 224 8,000  Level Chicago Center
01:08AM 42.0189 -86.9656 265° West 195 224 8,000  Level Chicago Center
01:09AM 42.0119 -87.0508 264° West 194 223 8,000  Level Chicago Center
01:10AM 42.0061 -87.1222 264° West 193 222 8,000  Level Chicago Center
01:11AM 42.0006 -87.1936 264° West 193 222 8,000  Level Chicago Center
01:12AM 41.9944 -87.2653 263° West 194 223 8,000  Level Chicago Center
01:13AM 41.9892 -87.3381 264° West 196 226 8,000  Level Chicago Center
01:14AM 41.9833 -87.3833 260° West 197 227 8,000  Level Chicago TRACON
01:15AM 41.9833 -87.4500 270° West 196 226 8,000  Level Chicago TRACON
01:16AM 41.9667 -87.5333 255° West 191 220 8,000  Level Chicago TRACON
01:17AM 41.9667 -87.6167 270° West 188 216 8,000 -240 Level Chicago TRACON
01:18AM 41.9667 -87.6833 270° West 199 229 7,600 -540 Descending Chicago TRACON
01:19AM 41.9500 -87.7667 255° West 204 235 6,900 -720 Descending Chicago TRACON
01:20AM 41.9500 -87.8500 270° West 205 236 6,100 -840 Descending Chicago TRACON
01:21AM 41.9333 -87.9167 251° West 217 250 5,200 -840 Descending Chicago TRACON
01:22AM 41.9333 -88.0000 270° West 202 232 4,500 -960 Descending Chicago TRACON
01:23AM 41.9167 -88.0833 255° West 212 244 3,300 -1,140 Descending Chicago TRACON
01:24AM 41.9000 -88.1333 246° West 201 231 2,400 -840 Descending Chicago TRACON
01:25AM 41.8667 -88.2000 236° Southwest 185 213 1,800 -600 Descending Chicago TRACON
01:26AM 41.8833 -88.2500 294° West 175 201 1,300 -420 Descending Chicago TRACON
01:27AM 41.9153 -88.2503 360° North 171 197 1,000 -300 Descending Chicago Center